sensor_id;sensor_type;location;lat;lon;timestamp;P1;durP1;ratioP1;P2;durP2;ratioP2
9536;SDS011;4807;48.024;11.726;2023-10-09T00:02:48;7.83;;;2.77;;
9536;SDS011;4807;48.024;11.726;2023-10-09T00:05:56;5.87;;;2.50;;
9536;SDS011;4807;48.024;11.726;2023-10-09T00:09:08;11.47;;;2.47;;
9536;SDS011;4807;48.024;11.726;2023-10-09T00:12:36;6.50;;;2.23;;
9536;SDS011;4807;48.024;11.726;2023-10-09T00:15:50;10.43;;;2.40;;
9536;SDS011;4807;48.024;11.726;2023-10-09T00:19:00;11.27;;;2.90;;
9536;SDS011;4807;48.024;11.726;2023-10-09T00:22:20;7.87;;;2.70;;
9536;SDS011;4807;48.024;11.726;2023-10-09T00:25:38;11.37;;;2.80;;
9536;SDS011;4807;48.024;11.726;2023-10-09T00:28:53;8.23;;;2.43;;
9536;SDS011;4807;48.024;11.726;2023-10-09T00:32:02;7.77;;;2.73;;
9536;SDS011;4807;48.024;11.726;2023-10-09T00:35:19;7.20;;;2.33;;
9536;SDS011;4807;48.024;11.726;2023-10-09T00:38:44;6.20;;;2.33;;
9536;SDS011;4807;48.024;11.726;2023-10-09T00:41:58;8.57;;;2.37;;
9536;SDS011;4807;48.024;11.726;2023-10-09T00:45:09;12.17;;;2.53;;
9536;SDS011;4807;48.024;11.726;2023-10-09T00:48:23;9.93;;;2.97;;
9536;SDS011;4807;48.024;11.726;2023-10-09T00:51:38;16.40;;;2.23;;
9536;SDS011;4807;48.024;11.726;2023-10-09T00:55:03;10.50;;;2.60;;
9536;SDS011;4807;48.024;11.726;2023-10-09T00:58:22;8.40;;;2.10;;
9536;SDS011;4807;48.024;11.726;2023-10-09T01:01:37;7.87;;;2.50;;
9536;SDS011;4807;48.024;11.726;2023-10-09T01:04:47;9.47;;;2.13;;
9536;SDS011;4807;48.024;11.726;2023-10-09T01:07:55;11.23;;;2.73;;
9536;SDS011;4807;48.024;11.726;2023-10-09T01:11:05;12.10;;;2.27;;
9536;SDS011;4807;48.024;11.726;2023-10-09T01:14:17;8.27;;;2.03;;
9536;SDS011;4807;48.024;11.726;2023-10-09T01:17:29;7.70;;;2.30;;
9536;SDS011;4807;48.024;11.726;2023-10-09T01:20:43;9.50;;;2.40;;
9536;SDS011;4807;48.024;11.726;2023-10-09T01:23:53;10.67;;;2.07;;
9536;SDS011;4807;48.024;11.726;2023-10-09T01:27:15;9.23;;;2.33;;
9536;SDS011;4807;48.024;11.726;2023-10-09T01:30:23;13.93;;;2.20;;
9536;SDS011;4807;48.024;11.726;2023-10-09T01:33:32;11.03;;;2.30;;
9536;SDS011;4807;48.024;11.726;2023-10-09T01:36:43;9.10;;;2.10;;
9536;SDS011;4807;48.024;11.726;2023-10-09T01:39:57;5.77;;;1.87;;
9536;SDS011;4807;48.024;11.726;2023-10-09T01:43:26;10.77;;;2.30;;
9536;SDS011;4807;48.024;11.726;2023-10-09T01:46:35;11.63;;;2.10;;
9536;SDS011;4807;48.024;11.726;2023-10-09T01:49:43;9.80;;;2.33;;
9536;SDS011;4807;48.024;11.726;2023-10-09T01:52:56;10.10;;;2.23;;
9536;SDS011;4807;48.024;11.726;2023-10-09T01:56:12;11.47;;;2.27;;
9536;SDS011;4807;48.024;11.726;2023-10-09T01:59:22;9.47;;;1.80;;
9536;SDS011;4807;48.024;11.726;2023-10-09T02:02:31;15.43;;;3.03;;
9536;SDS011;4807;48.024;11.726;2023-10-09T02:05:41;8.77;;;2.30;;
9536;SDS011;4807;48.024;11.726;2023-10-09T02:08:51;7.53;;;1.80;;
9536;SDS011;4807;48.024;11.726;2023-10-09T02:12:02;8.83;;;2.17;;
9536;SDS011;4807;48.024;11.726;2023-10-09T02:15:11;4.50;;;1.80;;
9536;SDS011;4807;48.024;11.726;2023-10-09T02:18:22;12.40;;;2.20;;
9536;SDS011;4807;48.024;11.726;2023-10-09T02:21:46;8.40;;;1.87;;
9536;SDS011;4807;48.024;11.726;2023-10-09T02:24:55;7.30;;;1.80;;
9536;SDS011;4807;48.024;11.726;2023-10-09T02:28:07;8.33;;;2.07;;
9536;SDS011;4807;48.024;11.726;2023-10-09T02:31:24;12.47;;;2.23;;
9536;SDS011;4807;48.024;11.726;2023-10-09T02:34:40;6.00;;;1.90;;
9536;SDS011;4807;48.024;11.726;2023-10-09T02:37:52;17.83;;;2.53;;
9536;SDS011;4807;48.024;11.726;2023-10-09T02:41:01;7.17;;;1.90;;
9536;SDS011;4807;48.024;11.726;2023-10-09T02:44:28;10.67;;;2.27;;
9536;SDS011;4807;48.024;11.726;2023-10-09T02:47:41;11.50;;;2.23;;
9536;SDS011;4807;48.024;11.726;2023-10-09T02:55:25;8.43;;;2.33;;
9536;SDS011;4807;48.024;11.726;2023-10-09T02:58:36;7.63;;;1.57;;
9536;SDS011;4807;48.024;11.726;2023-10-09T03:01:47;9.23;;;2.13;;
9536;SDS011;4807;48.024;11.726;2023-10-09T03:04:59;7.23;;;2.07;;
9536;SDS011;4807;48.024;11.726;2023-10-09T03:08:09;10.63;;;2.47;;
9536;SDS011;4807;48.024;11.726;2023-10-09T03:11:18;9.93;;;2.00;;
9536;SDS011;4807;48.024;11.726;2023-10-09T03:14:27;5.87;;;2.00;;
9536;SDS011;4807;48.024;11.726;2023-10-09T03:17:38;9.17;;;2.03;;
9536;SDS011;4807;48.024;11.726;2023-10-09T03:20:49;8.03;;;2.30;;
9536;SDS011;4807;48.024;11.726;2023-10-09T03:23:57;8.30;;;1.73;;
9536;SDS011;4807;48.024;11.726;2023-10-09T03:27:11;12.63;;;2.03;;
9536;SDS011;4807;48.024;11.726;2023-10-09T03:30:20;9.20;;;1.80;;
9536;SDS011;4807;48.024;11.726;2023-10-09T03:33:31;6.00;;;1.90;;
9536;SDS011;4807;48.024;11.726;2023-10-09T03:36:42;10.20;;;2.20;;
9536;SDS011;4807;48.024;11.726;2023-10-09T03:39:50;8.10;;;1.80;;
9536;SDS011;4807;48.024;11.726;2023-10-09T03:43:02;9.73;;;1.83;;
9536;SDS011;4807;48.024;11.726;2023-10-09T03:46:11;5.30;;;1.93;;
9536;SDS011;4807;48.024;11.726;2023-10-09T03:49:23;7.30;;;2.17;;
9536;SDS011;4807;48.024;11.726;2023-10-09T03:52:32;5.97;;;1.73;;
9536;SDS011;4807;48.024;11.726;2023-10-09T03:55:41;5.63;;;1.63;;
9536;SDS011;4807;48.024;11.726;2023-10-09T03:58:50;8.40;;;2.07;;
9536;SDS011;4807;48.024;11.726;2023-10-09T04:02:01;9.20;;;1.57;;
9536;SDS011;4807;48.024;11.726;2023-10-09T04:05:12;15.60;;;2.20;;
9536;SDS011;4807;48.024;11.726;2023-10-09T04:08:22;6.13;;;1.40;;
9536;SDS011;4807;48.024;11.726;2023-10-09T04:11:36;8.37;;;1.53;;
9536;SDS011;4807;48.024;11.726;2023-10-09T04:14:49;9.93;;;1.83;;
9536;SDS011;4807;48.024;11.726;2023-10-09T04:18:02;6.83;;;1.50;;
9536;SDS011;4807;48.024;11.726;2023-10-09T04:21:13;9.90;;;2.00;;
9536;SDS011;4807;48.024;11.726;2023-10-09T04:24:41;8.27;;;2.10;;
9536;SDS011;4807;48.024;11.726;2023-10-09T04:27:51;6.53;;;1.80;;
9536;SDS011;4807;48.024;11.726;2023-10-09T04:31:06;10.40;;;1.80;;
9536;SDS011;4807;48.024;11.726;2023-10-09T04:34:14;13.63;;;2.13;;
9536;SDS011;4807;48.024;11.726;2023-10-09T04:37:42;13.83;;;1.70;;
9536;SDS011;4807;48.024;11.726;2023-10-09T04:40:59;5.70;;;1.60;;
9536;SDS011;4807;48.024;11.726;2023-10-09T04:44:11;13.17;;;2.00;;
9536;SDS011;4807;48.024;11.726;2023-10-09T04:47:27;5.73;;;1.67;;
9536;SDS011;4807;48.024;11.726;2023-10-09T04:50:43;8.53;;;1.87;;
9536;SDS011;4807;48.024;11.726;2023-10-09T04:54:12;5.80;;;1.53;;
9536;SDS011;4807;48.024;11.726;2023-10-09T04:57:21;8.23;;;1.50;;
9536;SDS011;4807;48.024;11.726;2023-10-09T05:00:32;6.17;;;1.40;;
9536;SDS011;4807;48.024;11.726;2023-10-09T05:04:08;6.83;;;1.67;;
9536;SDS011;4807;48.024;11.726;2023-10-09T05:07:33;8.17;;;1.90;;
9536;SDS011;4807;48.024;11.726;2023-10-09T05:10:57;7.70;;;1.77;;
9536;SDS011;4807;48.024;11.726;2023-10-09T05:14:25;7.13;;;1.67;;
9536;SDS011;4807;48.024;11.726;2023-10-09T05:17:45;6.90;;;1.50;;
9536;SDS011;4807;48.024;11.726;2023-10-09T05:21:03;7.30;;;1.80;;
9536;SDS011;4807;48.024;11.726;2023-10-09T05:24:32;6.67;;;1.97;;
9536;SDS011;4807;48.024;11.726;2023-10-09T05:27:52;6.10;;;1.50;;
9536;SDS011;4807;48.024;11.726;2023-10-09T05:31:20;6.93;;;1.27;;
9536;SDS011;4807;48.024;11.726;2023-10-09T05:34:45;6.93;;;1.60;;
9536;SDS011;4807;48.024;11.726;2023-10-09T05:38:08;4.87;;;1.80;;
9536;SDS011;4807;48.024;11.726;2023-10-09T05:41:31;6.60;;;1.40;;
9536;SDS011;4807;48.024;11.726;2023-10-09T05:44:56;10.83;;;1.83;;
9536;SDS011;4807;48.024;11.726;2023-10-09T05:48:20;3.87;;;1.23;;
9536;SDS011;4807;48.024;11.726;2023-10-09T05:52:01;6.77;;;2.07;;
9536;SDS011;4807;48.024;11.726;2023-10-09T05:55:29;7.70;;;2.43;;
9536;SDS011;4807;48.024;11.726;2023-10-09T05:59:10;5.23;;;1.57;;
9536;SDS011;4807;48.024;11.726;2023-10-09T06:02:37;6.80;;;2.00;;
9536;SDS011;4807;48.024;11.726;2023-10-09T06:06:08;8.50;;;1.80;;
9536;SDS011;4807;48.024;11.726;2023-10-09T06:09:24;6.50;;;1.93;;
9536;SDS011;4807;48.024;11.726;2023-10-09T06:12:57;4.57;;;1.40;;
9536;SDS011;4807;48.024;11.726;2023-10-09T06:16:10;9.67;;;1.80;;
9536;SDS011;4807;48.024;11.726;2023-10-09T06:19:39;7.73;;;2.10;;
9536;SDS011;4807;48.024;11.726;2023-10-09T06:22:50;9.63;;;2.10;;
9536;SDS011;4807;48.024;11.726;2023-10-09T06:26:03;9.30;;;2.20;;
9536;SDS011;4807;48.024;11.726;2023-10-09T06:29:30;8.53;;;2.20;;
9536;SDS011;4807;48.024;11.726;2023-10-09T06:32:41;6.57;;;2.13;;
9536;SDS011;4807;48.024;11.726;2023-10-09T06:36:00;5.50;;;1.80;;
9536;SDS011;4807;48.024;11.726;2023-10-09T06:39:15;6.73;;;2.27;;
9536;SDS011;4807;48.024;11.726;2023-10-09T06:42:40;8.77;;;2.03;;
9536;SDS011;4807;48.024;11.726;2023-10-09T06:45:59;7.63;;;2.40;;
9536;SDS011;4807;48.024;11.726;2023-10-09T06:49:21;13.80;;;5.30;;
9536;SDS011;4807;48.024;11.726;2023-10-09T06:52:41;15.87;;;6.43;;
9536;SDS011;4807;48.024;11.726;2023-10-09T06:56:04;25.53;;;8.63;;
9536;SDS011;4807;48.024;11.726;2023-10-09T06:59:12;11.03;;;4.57;;
9536;SDS011;4807;48.024;11.726;2023-10-09T07:02:27;12.63;;;2.97;;
9536;SDS011;4807;48.024;11.726;2023-10-09T07:05:52;10.97;;;2.80;;
9536;SDS011;4807;48.024;11.726;2023-10-09T07:09:18;7.23;;;2.57;;
9536;SDS011;4807;48.024;11.726;2023-10-09T07:12:26;8.93;;;2.87;;
9536;SDS011;4807;48.024;11.726;2023-10-09T07:15:42;12.90;;;2.47;;
9536;SDS011;4807;48.024;11.726;2023-10-09T07:19:08;8.50;;;2.57;;
9536;SDS011;4807;48.024;11.726;2023-10-09T07:22:34;11.93;;;2.60;;
9536;SDS011;4807;48.024;11.726;2023-10-09T07:26:04;13.93;;;3.00;;
9536;SDS011;4807;48.024;11.726;2023-10-09T07:29:29;9.23;;;2.63;;
9536;SDS011;4807;48.024;11.726;2023-10-09T07:32:54;10.93;;;2.67;;
9536;SDS011;4807;48.024;11.726;2023-10-09T07:36:12;9.57;;;1.77;;
9536;SDS011;4807;48.024;11.726;2023-10-09T07:39:20;13.07;;;1.70;;
9536;SDS011;4807;48.024;11.726;2023-10-09T07:42:31;8.50;;;2.03;;
9536;SDS011;4807;48.024;11.726;2023-10-09T07:45:50;7.50;;;1.60;;
9536;SDS011;4807;48.024;11.726;2023-10-09T07:49:22;6.60;;;1.70;;
9536;SDS011;4807;48.024;11.726;2023-10-09T07:52:32;8.27;;;1.77;;
9536;SDS011;4807;48.024;11.726;2023-10-09T07:55:40;9.10;;;1.83;;
9536;SDS011;4807;48.024;11.726;2023-10-09T07:58:57;6.57;;;1.90;;
9536;SDS011;4807;48.024;11.726;2023-10-09T08:02:06;9.87;;;1.80;;
9536;SDS011;4807;48.024;11.726;2023-10-09T08:05:19;10.90;;;2.00;;
9536;SDS011;4807;48.024;11.726;2023-10-09T08:08:29;7.20;;;2.10;;
9536;SDS011;4807;48.024;11.726;2023-10-09T08:12:02;4.90;;;1.87;;
9536;SDS011;4807;48.024;11.726;2023-10-09T08:15:43;9.63;;;1.87;;
9536;SDS011;4807;48.024;11.726;2023-10-09T08:18:58;10.80;;;1.50;;
9536;SDS011;4807;48.024;11.726;2023-10-09T08:22:06;10.57;;;1.37;;
9536;SDS011;4807;48.024;11.726;2023-10-09T08:25:49;10.17;;;1.87;;
9536;SDS011;4807;48.024;11.726;2023-10-09T08:29:03;7.27;;;1.43;;
9536;SDS011;4807;48.024;11.726;2023-10-09T08:32:27;11.17;;;1.70;;
9536;SDS011;4807;48.024;11.726;2023-10-09T08:35:50;19.07;;;2.77;;
9536;SDS011;4807;48.024;11.726;2023-10-09T08:38:58;8.27;;;1.57;;
9536;SDS011;4807;48.024;11.726;2023-10-09T08:42:08;16.40;;;1.90;;
9536;SDS011;4807;48.024;11.726;2023-10-09T08:45:21;12.67;;;1.77;;
9536;SDS011;4807;48.024;11.726;2023-10-09T08:48:33;10.87;;;1.73;;
9536;SDS011;4807;48.024;11.726;2023-10-09T08:51:46;8.20;;;1.50;;
9536;SDS011;4807;48.024;11.726;2023-10-09T08:54:54;8.10;;;1.90;;
9536;SDS011;4807;48.024;11.726;2023-10-09T08:58:03;14.40;;;2.77;;
9536;SDS011;4807;48.024;11.726;2023-10-09T09:01:17;9.93;;;2.00;;
9536;SDS011;4807;48.024;11.726;2023-10-09T09:04:35;7.10;;;1.90;;
9536;SDS011;4807;48.024;11.726;2023-10-09T09:07:46;9.27;;;2.03;;
9536;SDS011;4807;48.024;11.726;2023-10-09T09:10:58;8.93;;;1.40;;
9536;SDS011;4807;48.024;11.726;2023-10-09T09:14:18;12.90;;;2.40;;
9536;SDS011;4807;48.024;11.726;2023-10-09T09:17:29;11.93;;;1.97;;
9536;SDS011;4807;48.024;11.726;2023-10-09T09:20:43;9.07;;;1.60;;
9536;SDS011;4807;48.024;11.726;2023-10-09T09:23:53;16.47;;;1.93;;
9536;SDS011;4807;48.024;11.726;2023-10-09T09:27:05;15.17;;;2.17;;
9536;SDS011;4807;48.024;11.726;2023-10-09T09:30:22;9.07;;;1.93;;
9536;SDS011;4807;48.024;11.726;2023-10-09T09:33:38;8.43;;;1.77;;
9536;SDS011;4807;48.024;11.726;2023-10-09T09:36:51;9.77;;;1.70;;
9536;SDS011;4807;48.024;11.726;2023-10-09T09:40:03;9.77;;;2.17;;
9536;SDS011;4807;48.024;11.726;2023-10-09T09:43:22;11.63;;;2.10;;
9536;SDS011;4807;48.024;11.726;2023-10-09T09:46:33;4.70;;;1.70;;
9536;SDS011;4807;48.024;11.726;2023-10-09T09:49:44;11.03;;;1.83;;
9536;SDS011;4807;48.024;11.726;2023-10-09T09:52:55;13.37;;;2.07;;
9536;SDS011;4807;48.024;11.726;2023-10-09T09:56:05;6.87;;;1.70;;
9536;SDS011;4807;48.024;11.726;2023-10-09T09:59:24;10.13;;;1.97;;
9536;SDS011;4807;48.024;11.726;2023-10-09T10:02:35;18.57;;;2.13;;
9536;SDS011;4807;48.024;11.726;2023-10-09T10:05:47;12.77;;;2.10;;
9536;SDS011;4807;48.024;11.726;2023-10-09T10:09:04;13.33;;;2.10;;
9536;SDS011;4807;48.024;11.726;2023-10-09T10:12:15;13.03;;;2.20;;
9536;SDS011;4807;48.024;11.726;2023-10-09T10:16:07;9.03;;;1.77;;
9536;SDS011;4807;48.024;11.726;2023-10-09T10:19:20;9.50;;;1.60;;
9536;SDS011;4807;48.024;11.726;2023-10-09T10:22:29;8.90;;;1.87;;
9536;SDS011;4807;48.024;11.726;2023-10-09T10:25:40;10.90;;;1.50;;
9536;SDS011;4807;48.024;11.726;2023-10-09T10:32:37;11.03;;;2.20;;
9536;SDS011;4807;48.024;11.726;2023-10-09T10:36:03;12.40;;;2.37;;
9536;SDS011;4807;48.024;11.726;2023-10-09T10:39:13;12.27;;;2.53;;
9536;SDS011;4807;48.024;11.726;2023-10-09T10:42:29;9.60;;;2.00;;
9536;SDS011;4807;48.024;11.726;2023-10-09T10:45:44;12.90;;;2.27;;
9536;SDS011;4807;48.024;11.726;2023-10-09T10:48:52;13.47;;;2.40;;
9536;SDS011;4807;48.024;11.726;2023-10-09T10:52:06;12.17;;;2.07;;
9536;SDS011;4807;48.024;11.726;2023-10-09T10:55:24;6.93;;;1.83;;
9536;SDS011;4807;48.024;11.726;2023-10-09T10:58:56;12.57;;;2.20;;
9536;SDS011;4807;48.024;11.726;2023-10-09T11:02:28;8.07;;;1.90;;
9536;SDS011;4807;48.024;11.726;2023-10-09T11:05:37;10.73;;;1.83;;
9536;SDS011;4807;48.024;11.726;2023-10-09T11:08:57;10.00;;;2.20;;
9536;SDS011;4807;48.024;11.726;2023-10-09T11:12:15;7.50;;;1.97;;
9536;SDS011;4807;48.024;11.726;2023-10-09T11:15:30;8.47;;;1.40;;
9536;SDS011;4807;48.024;11.726;2023-10-09T11:18:52;7.20;;;1.80;;
9536;SDS011;4807;48.024;11.726;2023-10-09T11:22:03;11.57;;;2.40;;
9536;SDS011;4807;48.024;11.726;2023-10-09T11:25:34;13.33;;;2.10;;
9536;SDS011;4807;48.024;11.726;2023-10-09T11:28:45;11.60;;;2.00;;
9536;SDS011;4807;48.024;11.726;2023-10-09T11:31:59;11.97;;;2.00;;
9536;SDS011;4807;48.024;11.726;2023-10-09T11:35:13;8.37;;;1.73;;
9536;SDS011;4807;48.024;11.726;2023-10-09T11:38:31;9.63;;;1.67;;
9536;SDS011;4807;48.024;11.726;2023-10-09T11:41:42;8.97;;;2.10;;
9536;SDS011;4807;48.024;11.726;2023-10-09T11:44:51;10.63;;;1.90;;
9536;SDS011;4807;48.024;11.726;2023-10-09T11:48:16;15.23;;;2.87;;
9536;SDS011;4807;48.024;11.726;2023-10-09T11:51:33;16.77;;;2.30;;
9536;SDS011;4807;48.024;11.726;2023-10-09T11:54:44;16.27;;;3.13;;
9536;SDS011;4807;48.024;11.726;2023-10-09T11:57:52;13.93;;;2.40;;
9536;SDS011;4807;48.024;11.726;2023-10-09T12:01:10;16.63;;;2.90;;
9536;SDS011;4807;48.024;11.726;2023-10-09T12:04:24;16.10;;;2.90;;
9536;SDS011;4807;48.024;11.726;2023-10-09T12:07:38;16.73;;;3.80;;
9536;SDS011;4807;48.024;11.726;2023-10-09T12:10:46;18.40;;;3.27;;
9536;SDS011;4807;48.024;11.726;2023-10-09T12:13:55;15.63;;;3.37;;
9536;SDS011;4807;48.024;11.726;2023-10-09T12:17:04;12.87;;;3.23;;
9536;SDS011;4807;48.024;11.726;2023-10-09T12:20:14;19.90;;;2.60;;
9536;SDS011;4807;48.024;11.726;2023-10-09T12:23:38;11.77;;;3.03;;
9536;SDS011;4807;48.024;11.726;2023-10-09T12:26:47;18.27;;;2.67;;
9536;SDS011;4807;48.024;11.726;2023-10-09T12:29:59;18.30;;;2.77;;
9536;SDS011;4807;48.024;11.726;2023-10-09T12:33:09;14.53;;;2.43;;
9536;SDS011;4807;48.024;11.726;2023-10-09T12:36:22;21.03;;;2.83;;
9536;SDS011;4807;48.024;11.726;2023-10-09T12:39:32;21.63;;;3.50;;
9536;SDS011;4807;48.024;11.726;2023-10-09T12:42:40;12.33;;;3.07;;
9536;SDS011;4807;48.024;11.726;2023-10-09T12:45:49;16.33;;;2.83;;
9536;SDS011;4807;48.024;11.726;2023-10-09T12:48:59;14.90;;;2.77;;
9536;SDS011;4807;48.024;11.726;2023-10-09T12:52:07;11.83;;;3.10;;
9536;SDS011;4807;48.024;11.726;2023-10-09T12:55:23;19.87;;;3.37;;
9536;SDS011;4807;48.024;11.726;2023-10-09T12:58:38;14.50;;;3.17;;
9536;SDS011;4807;48.024;11.726;2023-10-09T13:01:59;17.27;;;3.57;;
9536;SDS011;4807;48.024;11.726;2023-10-09T13:05:12;15.00;;;3.23;;
9536;SDS011;4807;48.024;11.726;2023-10-09T13:08:32;13.63;;;2.90;;
9536;SDS011;4807;48.024;11.726;2023-10-09T13:11:44;12.50;;;2.40;;
9536;SDS011;4807;48.024;11.726;2023-10-09T13:14:54;13.10;;;2.83;;
9536;SDS011;4807;48.024;11.726;2023-10-09T13:18:03;28.80;;;3.07;;
9536;SDS011;4807;48.024;11.726;2023-10-09T13:21:13;17.77;;;3.03;;
9536;SDS011;4807;48.024;11.726;2023-10-09T13:24:22;14.50;;;3.20;;
9536;SDS011;4807;48.024;11.726;2023-10-09T13:27:39;11.80;;;2.87;;
9536;SDS011;4807;48.024;11.726;2023-10-09T13:30:47;18.67;;;2.93;;
9536;SDS011;4807;48.024;11.726;2023-10-09T13:33:58;12.53;;;2.80;;
9536;SDS011;4807;48.024;11.726;2023-10-09T13:37:08;16.00;;;3.20;;
9536;SDS011;4807;48.024;11.726;2023-10-09T13:40:21;16.27;;;2.90;;
9536;SDS011;4807;48.024;11.726;2023-10-09T13:43:35;19.17;;;2.77;;
9536;SDS011;4807;48.024;11.726;2023-10-09T13:46:47;12.07;;;2.57;;
9536;SDS011;4807;48.024;11.726;2023-10-09T13:49:57;15.17;;;2.47;;
9536;SDS011;4807;48.024;11.726;2023-10-09T13:53:06;15.73;;;2.57;;
9536;SDS011;4807;48.024;11.726;2023-10-09T13:56:18;12.57;;;3.53;;
9536;SDS011;4807;48.024;11.726;2023-10-09T13:59:35;8.33;;;2.33;;
9536;SDS011;4807;48.024;11.726;2023-10-09T14:02:49;13.77;;;2.87;;
9536;SDS011;4807;48.024;11.726;2023-10-09T14:05:58;15.37;;;2.60;;
9536;SDS011;4807;48.024;11.726;2023-10-09T14:09:16;13.20;;;3.10;;
9536;SDS011;4807;48.024;11.726;2023-10-09T14:12:38;11.43;;;2.40;;
9536;SDS011;4807;48.024;11.726;2023-10-09T14:15:50;13.13;;;2.50;;
9536;SDS011;4807;48.024;11.726;2023-10-09T14:19:00;14.43;;;3.03;;
9536;SDS011;4807;48.024;11.726;2023-10-09T14:22:13;15.37;;;2.80;;
9536;SDS011;4807;48.024;11.726;2023-10-09T14:25:23;14.00;;;3.53;;
9536;SDS011;4807;48.024;11.726;2023-10-09T14:28:33;10.00;;;2.07;;
9536;SDS011;4807;48.024;11.726;2023-10-09T14:31:43;10.20;;;2.93;;
9536;SDS011;4807;48.024;11.726;2023-10-09T14:34:56;10.27;;;2.30;;
9536;SDS011;4807;48.024;11.726;2023-10-09T14:38:07;15.90;;;2.80;;
9536;SDS011;4807;48.024;11.726;2023-10-09T14:41:19;14.97;;;2.40;;
9536;SDS011;4807;48.024;11.726;2023-10-09T14:44:30;17.83;;;2.90;;
9536;SDS011;4807;48.024;11.726;2023-10-09T14:47:39;11.77;;;2.57;;
9536;SDS011;4807;48.024;11.726;2023-10-09T14:50:48;11.07;;;2.50;;
9536;SDS011;4807;48.024;11.726;2023-10-09T14:54:00;16.23;;;2.47;;
9536;SDS011;4807;48.024;11.726;2023-10-09T14:57:09;11.17;;;2.83;;
9536;SDS011;4807;48.024;11.726;2023-10-09T15:00:18;11.37;;;2.80;;
9536;SDS011;4807;48.024;11.726;2023-10-09T15:03:31;9.93;;;2.50;;
9536;SDS011;4807;48.024;11.726;2023-10-09T15:06:44;15.20;;;2.60;;
9536;SDS011;4807;48.024;11.726;2023-10-09T15:09:54;12.67;;;2.50;;
9536;SDS011;4807;48.024;11.726;2023-10-09T15:13:07;11.27;;;1.97;;
9536;SDS011;4807;48.024;11.726;2023-10-09T15:16:15;10.53;;;2.47;;
9536;SDS011;4807;48.024;11.726;2023-10-09T15:19:25;15.73;;;2.47;;
9536;SDS011;4807;48.024;11.726;2023-10-09T15:22:36;10.73;;;2.47;;
9536;SDS011;4807;48.024;11.726;2023-10-09T15:25:44;9.90;;;2.57;;
9536;SDS011;4807;48.024;11.726;2023-10-09T15:28:56;12.87;;;2.53;;
9536;SDS011;4807;48.024;11.726;2023-10-09T15:32:05;12.97;;;2.83;;
9536;SDS011;4807;48.024;11.726;2023-10-09T15:35:22;10.10;;;2.30;;
9536;SDS011;4807;48.024;11.726;2023-10-09T15:38:30;10.60;;;2.43;;
9536;SDS011;4807;48.024;11.726;2023-10-09T15:41:39;10.47;;;2.47;;
9536;SDS011;4807;48.024;11.726;2023-10-09T15:44:47;11.07;;;2.67;;
9536;SDS011;4807;48.024;11.726;2023-10-09T15:48:01;8.47;;;1.90;;
9536;SDS011;4807;48.024;11.726;2023-10-09T15:51:12;11.73;;;2.10;;
9536;SDS011;4807;48.024;11.726;2023-10-09T15:54:21;11.13;;;2.17;;
9536;SDS011;4807;48.024;11.726;2023-10-09T15:57:30;11.43;;;2.93;;
9536;SDS011;4807;48.024;11.726;2023-10-09T16:00:38;11.83;;;2.33;;
9536;SDS011;4807;48.024;11.726;2023-10-09T16:03:51;15.07;;;3.47;;
9536;SDS011;4807;48.024;11.726;2023-10-09T16:07:01;14.27;;;4.47;;
9536;SDS011;4807;48.024;11.726;2023-10-09T16:10:12;18.97;;;6.27;;
9536;SDS011;4807;48.024;11.726;2023-10-09T16:13:20;12.90;;;4.67;;
9536;SDS011;4807;48.024;11.726;2023-10-09T16:16:29;10.93;;;3.90;;
9536;SDS011;4807;48.024;11.726;2023-10-09T16:19:40;13.30;;;5.50;;
9536;SDS011;4807;48.024;11.726;2023-10-09T16:22:49;17.43;;;3.27;;
9536;SDS011;4807;48.024;11.726;2023-10-09T16:25:58;10.97;;;3.10;;
9536;SDS011;4807;48.024;11.726;2023-10-09T16:29:07;8.07;;;3.80;;
9536;SDS011;4807;48.024;11.726;2023-10-09T16:32:18;10.83;;;2.63;;
9536;SDS011;4807;48.024;11.726;2023-10-09T16:35:27;9.80;;;2.70;;
9536;SDS011;4807;48.024;11.726;2023-10-09T16:38:37;11.83;;;3.53;;
9536;SDS011;4807;48.024;11.726;2023-10-09T16:41:46;13.63;;;3.63;;
9536;SDS011;4807;48.024;11.726;2023-10-09T16:44:55;10.30;;;2.43;;
9536;SDS011;4807;48.024;11.726;2023-10-09T16:48:04;11.60;;;3.30;;
9536;SDS011;4807;48.024;11.726;2023-10-09T16:51:14;13.43;;;3.07;;
9536;SDS011;4807;48.024;11.726;2023-10-09T16:54:25;8.50;;;1.90;;
9536;SDS011;4807;48.024;11.726;2023-10-09T16:57:34;10.93;;;2.97;;
9536;SDS011;4807;48.024;11.726;2023-10-09T17:04:06;6.90;;;1.90;;
9536;SDS011;4807;48.024;11.726;2023-10-09T17:07:18;12.97;;;2.47;;
9536;SDS011;4807;48.024;11.726;2023-10-09T17:10:33;8.40;;;1.90;;
9536;SDS011;4807;48.024;11.726;2023-10-09T17:13:44;8.30;;;2.30;;
9536;SDS011;4807;48.024;11.726;2023-10-09T17:16:55;11.90;;;2.33;;
9536;SDS011;4807;48.024;11.726;2023-10-09T17:20:04;6.33;;;2.27;;
9536;SDS011;4807;48.024;11.726;2023-10-09T17:23:17;5.77;;;2.30;;
9536;SDS011;4807;48.024;11.726;2023-10-09T17:26:28;8.17;;;2.47;;
9536;SDS011;4807;48.024;11.726;2023-10-09T17:29:37;9.10;;;1.90;;
9536;SDS011;4807;48.024;11.726;2023-10-09T17:32:46;10.07;;;2.10;;
9536;SDS011;4807;48.024;11.726;2023-10-09T17:35:55;8.63;;;2.17;;
9536;SDS011;4807;48.024;11.726;2023-10-09T17:39:03;8.97;;;1.97;;
9536;SDS011;4807;48.024;11.726;2023-10-09T17:42:13;10.40;;;1.53;;
9536;SDS011;4807;48.024;11.726;2023-10-09T17:45:21;6.97;;;1.90;;
9536;SDS011;4807;48.024;11.726;2023-10-09T17:48:31;8.27;;;2.13;;
9536;SDS011;4807;48.024;11.726;2023-10-09T17:51:40;8.60;;;2.00;;
9536;SDS011;4807;48.024;11.726;2023-10-09T17:54:49;12.10;;;2.20;;
9536;SDS011;4807;48.024;11.726;2023-10-09T17:58:00;14.00;;;2.80;;
9536;SDS011;4807;48.024;11.726;2023-10-09T18:01:13;9.83;;;2.23;;
9536;SDS011;4807;48.024;11.726;2023-10-09T18:04:21;8.50;;;2.37;;
9536;SDS011;4807;48.024;11.726;2023-10-09T18:07:29;11.07;;;2.47;;
9536;SDS011;4807;48.024;11.726;2023-10-09T18:10:38;8.47;;;2.43;;
9536;SDS011;4807;48.024;11.726;2023-10-09T18:13:49;10.90;;;2.33;;
9536;SDS011;4807;48.024;11.726;2023-10-09T18:16:57;15.30;;;3.07;;
9536;SDS011;4807;48.024;11.726;2023-10-09T18:20:07;10.47;;;2.50;;
9536;SDS011;4807;48.024;11.726;2023-10-09T18:23:17;7.93;;;2.67;;
9536;SDS011;4807;48.024;11.726;2023-10-09T18:26:26;11.00;;;2.60;;
9536;SDS011;4807;48.024;11.726;2023-10-09T18:29:38;8.33;;;2.20;;
9536;SDS011;4807;48.024;11.726;2023-10-09T18:32:47;9.67;;;2.30;;
9536;SDS011;4807;48.024;11.726;2023-10-09T18:35:55;8.97;;;1.60;;
9536;SDS011;4807;48.024;11.726;2023-10-09T18:39:08;11.10;;;2.27;;
9536;SDS011;4807;48.024;11.726;2023-10-09T18:42:16;11.07;;;2.40;;
9536;SDS011;4807;48.024;11.726;2023-10-09T18:45:26;9.80;;;2.20;;
9536;SDS011;4807;48.024;11.726;2023-10-09T18:48:37;6.87;;;2.00;;
9536;SDS011;4807;48.024;11.726;2023-10-09T18:51:45;9.40;;;2.33;;
9536;SDS011;4807;48.024;11.726;2023-10-09T18:54:53;10.03;;;1.73;;
9536;SDS011;4807;48.024;11.726;2023-10-09T18:58:03;9.13;;;2.23;;
9536;SDS011;4807;48.024;11.726;2023-10-09T19:01:16;10.97;;;2.63;;
9536;SDS011;4807;48.024;11.726;2023-10-09T19:04:24;8.60;;;1.90;;
9536;SDS011;4807;48.024;11.726;2023-10-09T19:07:33;6.67;;;1.93;;
9536;SDS011;4807;48.024;11.726;2023-10-09T19:10:44;6.37;;;2.47;;
9536;SDS011;4807;48.024;11.726;2023-10-09T19:13:53;8.47;;;1.80;;
9536;SDS011;4807;48.024;11.726;2023-10-09T19:17:03;4.67;;;1.63;;
9536;SDS011;4807;48.024;11.726;2023-10-09T19:20:12;8.80;;;2.17;;
9536;SDS011;4807;48.024;11.726;2023-10-09T19:23:24;7.63;;;1.83;;
9536;SDS011;4807;48.024;11.726;2023-10-09T19:26:33;8.10;;;1.70;;
9536;SDS011;4807;48.024;11.726;2023-10-09T19:29:44;7.87;;;1.90;;
9536;SDS011;4807;48.024;11.726;2023-10-09T19:32:54;9.93;;;2.07;;
9536;SDS011;4807;48.024;11.726;2023-10-09T19:36:03;8.77;;;2.03;;
9536;SDS011;4807;48.024;11.726;2023-10-09T19:39:18;9.93;;;1.80;;
9536;SDS011;4807;48.024;11.726;2023-10-09T19:42:26;9.13;;;1.57;;
9536;SDS011;4807;48.024;11.726;2023-10-09T19:45:34;10.90;;;1.90;;
9536;SDS011;4807;48.024;11.726;2023-10-09T19:48:46;6.07;;;1.70;;
9536;SDS011;4807;48.024;11.726;2023-10-09T19:51:57;11.63;;;2.13;;